sensor_id;sensor_type;location;lat;lon;timestamp;temperature;humidity
18454;DHT22;9356;52.202;20.950;2022-08-03T00:01:15;22.90;85.10
18454;DHT22;9356;52.202;20.950;2022-08-03T00:02:31;22.90;85.20
18454;DHT22;9356;52.202;20.950;2022-08-03T00:03:43;22.90;85.50
18454;DHT22;9356;52.202;20.950;2022-08-03T00:04:53;22.90;85.20
18454;DHT22;9356;52.202;20.950;2022-08-03T00:06:00;22.90;85.40
18454;DHT22;9356;52.202;20.950;2022-08-03T00:07:09;22.90;85.40
18454;DHT22;9356;52.202;20.950;2022-08-03T00:08:17;22.90;85.10
18454;DHT22;9356;52.202;20.950;2022-08-03T00:09:24;22.90;84.90
18454;DHT22;9356;52.202;20.950;2022-08-03T00:10:39;22.90;85.50
18454;DHT22;9356;52.202;20.950;2022-08-03T00:12:00;22.90;84.80
18454;DHT22;9356;52.202;20.950;2022-08-03T00:13:07;22.90;85.40
18454;DHT22;9356;52.202;20.950;2022-08-03T00:14:10;22.90;85.20
18454;DHT22;9356;52.202;20.950;2022-08-03T00:15:16;22.90;85.30
18454;DHT22;9356;52.202;20.950;2022-08-03T00:16:23;24.80;87.30
18454;DHT22;9356;52.202;20.950;2022-08-03T00:17:31;23.40;86.00
18454;DHT22;9356;52.202;20.950;2022-08-03T00:18:59;22.80;85.90
18454;DHT22;9356;52.202;20.950;2022-08-03T00:20:03;22.90;86.00
18454;DHT22;9356;52.202;20.950;2022-08-03T00:21:08;25.10;87.60
18454;DHT22;9356;52.202;20.950;2022-08-03T00:22:15;22.90;85.50
18454;DHT22;9356;52.202;20.950;2022-08-03T00:23:25;22.90;85.80
18454;DHT22;9356;52.202;20.950;2022-08-03T00:24:51;22.80;86.00
18454;DHT22;9356;52.202;20.950;2022-08-03T00:26:02;22.80;86.00
18454;DHT22;9356;52.202;20.950;2022-08-03T00:27:07;22.90;86.10
18454;DHT22;9356;52.202;20.950;2022-08-03T00:28:13;22.80;86.30
18454;DHT22;9356;52.202;20.950;2022-08-03T00:29:21;22.80;86.10
18454;DHT22;9356;52.202;20.950;2022-08-03T00:30:25;22.80;86.20
18454;DHT22;9356;52.202;20.950;2022-08-03T00:31:34;22.80;86.50
18454;DHT22;9356;52.202;20.950;2022-08-03T00:33:01;22.80;86.00
18454;DHT22;9356;52.202;20.950;2022-08-03T00:34:06;22.80;86.20
18454;DHT22;9356;52.202;20.950;2022-08-03T00:35:13;22.80;86.60
18454;DHT22;9356;52.202;20.950;2022-08-03T00:36:39;22.80;86.40
18454;DHT22;9356;52.202;20.950;2022-08-03T00:38:01;22.30;86.20
18454;DHT22;9356;52.202;20.950;2022-08-03T00:39:07;22.70;86.90
18454;DHT22;9356;52.202;20.950;2022-08-03T00:40:12;22.70;87.00
18454;DHT22;9356;52.202;20.950;2022-08-03T00:41:19;22.80;86.70
18454;DHT22;9356;52.202;20.950;2022-08-03T00:42:24;22.60;86.40
18454;DHT22;9356;52.202;20.950;2022-08-03T00:43:33;22.80;87.10
18454;DHT22;9356;52.202;20.950;2022-08-03T00:44:43;22.70;86.70
18454;DHT22;9356;52.202;20.950;2022-08-03T00:45:49;22.70;87.20
18454;DHT22;9356;52.202;20.950;2022-08-03T00:46:57;22.70;87.00
18454;DHT22;9356;52.202;20.950;2022-08-03T00:48:08;22.70;86.80
18454;DHT22;9356;52.202;20.950;2022-08-03T00:49:33;22.70;87.40
18454;DHT22;9356;52.202;20.950;2022-08-03T00:50:43;22.60;87.10
18454;DHT22;9356;52.202;20.950;2022-08-03T00:51:57;22.60;87.10
18454;DHT22;9356;52.202;20.950;2022-08-03T00:53:19;22.60;87.50
18454;DHT22;9356;52.202;20.950;2022-08-03T00:54:45;22.60;87.70
18454;DHT22;9356;52.202;20.950;2022-08-03T00:55:50;22.60;87.70
18454;DHT22;9356;52.202;20.950;2022-08-03T00:56:54;22.60;87.60
18454;DHT22;9356;52.202;20.950;2022-08-03T00:58:07;22.60;88.30
18454;DHT22;9356;52.202;20.950;2022-08-03T00:59:25;22.60;87.70
18454;DHT22;9356;52.202;20.950;2022-08-03T01:00:30;22.60;87.90
18454;DHT22;9356;52.202;20.950;2022-08-03T01:01:42;22.50;88.00
18454;DHT22;9356;52.202;20.950;2022-08-03T01:02:49;22.50;88.20
18454;DHT22;9356;52.202;20.950;2022-08-03T01:04:05;22.50;88.30
18454;DHT22;9356;52.202;20.950;2022-08-03T01:05:10;22.50;88.70
18454;DHT22;9356;52.202;20.950;2022-08-03T01:06:20;22.50;88.60
18454;DHT22;9356;52.202;20.950;2022-08-03T01:07:41;22.40;88.70
18454;DHT22;9356;52.202;20.950;2022-08-03T01:09:10;22.40;88.40
18454;DHT22;9356;52.202;20.950;2022-08-03T01:10:31;22.40;88.50
18454;DHT22;9356;52.202;20.950;2022-08-03T01:11:49;22.40;88.60
18454;DHT22;9356;52.202;20.950;2022-08-03T01:13:13;22.40;88.80
18454;DHT22;9356;52.202;20.950;2022-08-03T01:14:48;22.40;88.70
18454;DHT22;9356;52.202;20.950;2022-08-03T01:16:09;22.40;88.60
18454;DHT22;9356;52.202;20.950;2022-08-03T01:17:22;22.40;88.50
18454;DHT22;9356;52.202;20.950;2022-08-03T01:18:39;22.40;88.90
18454;DHT22;9356;52.202;20.950;2022-08-03T01:19:51;22.40;89.00
18454;DHT22;9356;52.202;20.950;2022-08-03T01:21:02;22.40;89.00
18454;DHT22;9356;52.202;20.950;2022-08-03T01:24:25;22.30;89.40
18454;DHT22;9356;52.202;20.950;2022-08-03T01:26:26;22.30;89.30
18454;DHT22;9356;52.202;20.950;2022-08-03T01:27:48;22.30;89.80
18454;DHT22;9356;52.202;20.950;2022-08-03T01:29:06;22.30;90.00
18454;DHT22;9356;52.202;20.950;2022-08-03T01:30:17;24.70;90.80
18454;DHT22;9356;52.202;20.950;2022-08-03T01:32:38;22.30;89.70
18454;DHT22;9356;52.202;20.950;2022-08-03T01:34:11;22.40;89.70
18454;DHT22;9356;52.202;20.950;2022-08-03T01:36:32;22.40;89.60
18454;DHT22;9356;52.202;20.950;2022-08-03T01:37:50;22.40;89.90
18454;DHT22;9356;52.202;20.950;2022-08-03T01:39:03;22.30;89.50
18454;DHT22;9356;52.202;20.950;2022-08-03T01:40:14;22.30;89.90
18454;DHT22;9356;52.202;20.950;2022-08-03T01:41:27;22.30;89.80
18454;DHT22;9356;52.202;20.950;2022-08-03T01:42:50;22.30;90.10
18454;DHT22;9356;52.202;20.950;2022-08-03T01:44:08;22.30;90.00
18454;DHT22;9356;52.202;20.950;2022-08-03T01:45:36;22.20;90.50
18454;DHT22;9356;52.202;20.950;2022-08-03T01:46:45;22.20;90.40
18454;DHT22;9356;52.202;20.950;2022-08-03T01:47:53;22.20;90.20
18454;DHT22;9356;52.202;20.950;2022-08-03T01:49:19;22.20;90.50
18454;DHT22;9356;52.202;20.950;2022-08-03T01:50:30;22.20;90.20
18454;DHT22;9356;52.202;20.950;2022-08-03T01:51:43;22.20;90.30
18454;DHT22;9356;52.202;20.950;2022-08-03T01:53:09;22.20;90.10
18454;DHT22;9356;52.202;20.950;2022-08-03T01:54:23;21.10;89.50
18454;DHT22;9356;52.202;20.950;2022-08-03T01:55:31;22.80;90.60
18454;DHT22;9356;52.202;20.950;2022-08-03T01:56:37;22.10;90.50
18454;DHT22;9356;52.202;20.950;2022-08-03T01:57:45;22.10;90.40
18454;DHT22;9356;52.202;20.950;2022-08-03T01:59:12;22.10;90.50
18454;DHT22;9356;52.202;20.950;2022-08-03T02:00:25;22.10;90.50
18454;DHT22;9356;52.202;20.950;2022-08-03T02:01:43;22.10;90.40
18454;DHT22;9356;52.202;20.950;2022-08-03T02:03:11;22.10;90.60
18454;DHT22;9356;52.202;20.950;2022-08-03T02:04:19;22.10;90.50
18454;DHT22;9356;52.202;20.950;2022-08-03T02:05:28;22.10;90.40
18454;DHT22;9356;52.202;20.950;2022-08-03T02:06:39;23.60;90.80
18454;DHT22;9356;52.202;20.950;2022-08-03T02:08:09;22.10;90.50
18454;DHT22;9356;52.202;20.950;2022-08-03T02:09:19;22.10;90.80
18454;DHT22;9356;52.202;20.950;2022-08-03T02:10:25;22.00;90.70
18454;DHT22;9356;52.202;20.950;2022-08-03T02:11:38;22.00;90.60
18454;DHT22;9356;52.202;20.950;2022-08-03T02:12:46;22.00;90.80
18454;DHT22;9356;52.202;20.950;2022-08-03T02:13:54;22.00;90.70
18454;DHT22;9356;52.202;20.950;2022-08-03T02:15:02;22.10;90.90
18454;DHT22;9356;52.202;20.950;2022-08-03T02:16:08;22.00;90.70
18454;DHT22;9356;52.202;20.950;2022-08-03T02:17:13;22.10;90.80
18454;DHT22;9356;52.202;20.950;2022-08-03T02:18:41;22.10;90.70
18454;DHT22;9356;52.202;20.950;2022-08-03T02:19:51;22.00;90.90
18454;DHT22;9356;52.202;20.950;2022-08-03T02:20:58;22.00;90.80
18454;DHT22;9356;52.202;20.950;2022-08-03T02:22:15;22.00;91.00
18454;DHT22;9356;52.202;20.950;2022-08-03T02:23:22;22.00;90.90
18454;DHT22;9356;52.202;20.950;2022-08-03T02:24:32;22.00;90.90
18454;DHT22;9356;52.202;20.950;2022-08-03T02:25:42;22.00;90.90
18454;DHT22;9356;52.202;20.950;2022-08-03T02:26:56;21.90;90.80
18454;DHT22;9356;52.202;20.950;2022-08-03T02:28:07;21.90;91.00
18454;DHT22;9356;52.202;20.950;2022-08-03T02:29:17;21.90;91.20
18454;DHT22;9356;52.202;20.950;2022-08-03T02:33:21;21.90;91.20
18454;DHT22;9356;52.202;20.950;2022-08-03T02:34:34;21.90;91.20
18454;DHT22;9356;52.202;20.950;2022-08-03T02:35:38;21.90;91.30
18454;DHT22;9356;52.202;20.950;2022-08-03T02:36:49;22.00;91.40
18454;DHT22;9356;52.202;20.950;2022-08-03T02:38:00;22.00;91.10
18454;DHT22;9356;52.202;20.950;2022-08-03T02:39:09;22.00;91.20
18454;DHT22;9356;52.202;20.950;2022-08-03T02:40:14;22.00;91.20
18454;DHT22;9356;52.202;20.950;2022-08-03T02:41:23;22.00;91.20
18454;DHT22;9356;52.202;20.950;2022-08-03T02:42:28;22.00;91.20
18454;DHT22;9356;52.202;20.950;2022-08-03T02:43:35;22.00;91.20
18454;DHT22;9356;52.202;20.950;2022-08-03T02:45:02;22.00;91.10
18454;DHT22;9356;52.202;20.950;2022-08-03T02:46:10;22.00;91.30
18454;DHT22;9356;52.202;20.950;2022-08-03T02:47:17;22.00;91.00
18454;DHT22;9356;52.202;20.950;2022-08-03T02:48:28;21.90;91.10
18454;DHT22;9356;52.202;20.950;2022-08-03T02:49:33;21.90;91.30
18454;DHT22;9356;52.202;20.950;2022-08-03T02:50:54;21.90;91.10
18454;DHT22;9356;52.202;20.950;2022-08-03T02:52:02;21.90;91.30
18454;DHT22;9356;52.202;20.950;2022-08-03T02:53:16;21.90;91.40
18454;DHT22;9356;52.202;20.950;2022-08-03T02:54:23;21.90;91.40
18454;DHT22;9356;52.202;20.950;2022-08-03T02:55:32;21.90;91.60
18454;DHT22;9356;52.202;20.950;2022-08-03T02:56:37;21.80;91.60
18454;DHT22;9356;52.202;20.950;2022-08-03T02:57:44;21.80;91.60
18454;DHT22;9356;52.202;20.950;2022-08-03T02:58:48;21.80;91.50
18454;DHT22;9356;52.202;20.950;2022-08-03T02:59:54;21.80;91.60
18454;DHT22;9356;52.202;20.950;2022-08-03T03:00:57;21.90;91.60
18454;DHT22;9356;52.202;20.950;2022-08-03T03:02:01;21.90;91.50
18454;DHT22;9356;52.202;20.950;2022-08-03T03:03:04;21.90;91.80
18454;DHT22;9356;52.202;20.950;2022-08-03T03:04:13;21.80;91.70
18454;DHT22;9356;52.202;20.950;2022-08-03T03:05:21;21.80;91.70
18454;DHT22;9356;52.202;20.950;2022-08-03T03:06:45;21.80;91.60
18454;DHT22;9356;52.202;20.950;2022-08-03T03:07:49;21.90;91.70
18454;DHT22;9356;52.202;20.950;2022-08-03T03:08:55;21.90;91.50
18454;DHT22;9356;52.202;20.950;2022-08-03T03:10:02;21.80;91.90
18454;DHT22;9356;52.202;20.950;2022-08-03T03:11:07;21.90;91.90
18454;DHT22;9356;52.202;20.950;2022-08-03T03:12:15;21.90;91.80
18454;DHT22;9356;52.202;20.950;2022-08-03T03:13:21;22.00;91.90
18454;DHT22;9356;52.202;20.950;2022-08-03T03:14:26;21.90;91.60
18454;DHT22;9356;52.202;20.950;2022-08-03T03:15:36;22.00;91.90
18454;DHT22;9356;52.202;20.950;2022-08-03T03:16:43;22.60;91.90
18454;DHT22;9356;52.202;20.950;2022-08-03T03:17:53;21.90;91.90
18454;DHT22;9356;52.202;20.950;2022-08-03T03:18:59;21.90;91.80
18454;DHT22;9356;52.202;20.950;2022-08-03T03:20:07;21.90;91.90
18454;DHT22;9356;52.202;20.950;2022-08-03T03:21:13;21.90;91.90
18454;DHT22;9356;52.202;20.950;2022-08-03T03:22:21;21.90;91.90
18454;DHT22;9356;52.202;20.950;2022-08-03T03:23:27;21.90;91.80
18454;DHT22;9356;52.202;20.950;2022-08-03T03:24:31;21.90;92.00
18454;DHT22;9356;52.202;20.950;2022-08-03T03:25:37;21.90;91.90
18454;DHT22;9356;52.202;20.950;2022-08-03T03:26:42;21.90;92.00
18454;DHT22;9356;52.202;20.950;2022-08-03T03:27:46;22.00;91.90
18454;DHT22;9356;52.202;20.950;2022-08-03T03:28:52;22.00;91.90
18454;DHT22;9356;52.202;20.950;2022-08-03T03:29:57;22.00;92.10
18454;DHT22;9356;52.202;20.950;2022-08-03T03:30:59;22.00;92.40
18454;DHT22;9356;52.202;20.950;2022-08-03T03:32:04;22.00;92.00
18454;DHT22;9356;52.202;20.950;2022-08-03T03:33:11;22.00;92.00
18454;DHT22;9356;52.202;20.950;2022-08-03T03:34:17;22.00;92.00
18454;DHT22;9356;52.202;20.950;2022-08-03T03:35:21;22.10;91.90
18454;DHT22;9356;52.202;20.950;2022-08-03T03:36:25;22.00;91.90
18454;DHT22;9356;52.202;20.950;2022-08-03T03:37:29;22.00;92.00
18454;DHT22;9356;52.202;20.950;2022-08-03T03:38:32;22.10;92.10
18454;DHT22;9356;52.202;20.950;2022-08-03T03:39:36;22.10;92.00
18454;DHT22;9356;52.202;20.950;2022-08-03T03:40:39;22.10;92.00
18454;DHT22;9356;52.202;20.950;2022-08-03T03:41:43;22.10;91.80
18454;DHT22;9356;52.202;20.950;2022-08-03T03:42:46;22.20;91.80
18454;DHT22;9356;52.202;20.950;2022-08-03T03:43:50;22.20;91.80
18454;DHT22;9356;52.202;20.950;2022-08-03T03:44:53;22.30;91.70
18454;DHT22;9356;52.202;20.950;2022-08-03T03:45:57;22.40;91.70
18454;DHT22;9356;52.202;20.950;2022-08-03T03:47:00;22.50;91.50
18454;DHT22;9356;52.202;20.950;2022-08-03T03:48:05;22.60;91.30
18454;DHT22;9356;52.202;20.950;2022-08-03T03:49:08;22.70;91.30
18454;DHT22;9356;52.202;20.950;2022-08-03T03:50:12;22.70;91.10
18454;DHT22;9356;52.202;20.950;2022-08-03T03:51:17;22.70;91.00
18454;DHT22;9356;52.202;20.950;2022-08-03T03:52:21;22.70;91.10
18454;DHT22;9356;52.202;20.950;2022-08-03T03:53:24;22.70;91.20
18454;DHT22;9356;52.202;20.950;2022-08-03T03:54:38;22.70;91.30
18454;DHT22;9356;52.202;20.950;2022-08-03T03:55:42;22.70;91.30
18454;DHT22;9356;52.202;20.950;2022-08-03T03:57:03;22.70;91.30
18454;DHT22;9356;52.202;20.950;2022-08-03T03:58:06;22.70;91.20
18454;DHT22;9356;52.202;20.950;2022-08-03T03:59:09;22.70;91.20
18454;DHT22;9356;52.202;20.950;2022-08-03T04:00:13;22.80;91.30
18454;DHT22;9356;52.202;20.950;2022-08-03T04:01:18;22.80;91.30
18454;DHT22;9356;52.202;20.950;2022-08-03T04:02:21;23.20;91.50
18454;DHT22;9356;52.202;20.950;2022-08-03T04:03:24;22.80;91.40
18454;DHT22;9356;52.202;20.950;2022-08-03T04:04:27;22.80;91.40
18454;DHT22;9356;52.202;20.950;2022-08-03T04:05:49;22.80;91.30
18454;DHT22;9356;52.202;20.950;2022-08-03T04:07:12;22.80;91.20
18454;DHT22;9356;52.202;20.950;2022-08-03T04:08:39;22.80;91.10
18454;DHT22;9356;52.202;20.950;2022-08-03T04:10:19;22.80;91.20
18454;DHT22;9356;52.202;20.950;2022-08-03T04:11:46;22.70;91.20
18454;DHT22;9356;52.202;20.950;2022-08-03T04:12:54;20.70;90.60
18454;DHT22;9356;52.202;20.950;2022-08-03T04:14:05;21.80;91.00
18454;DHT22;9356;52.202;20.950;2022-08-03T04:15:12;22.70;91.30
18454;DHT22;9356;52.202;20.950;2022-08-03T04:16:19;22.70;91.20
18454;DHT22;9356;52.202;20.950;2022-08-03T04:17:27;22.70;91.40
18454;DHT22;9356;52.202;20.950;2022-08-03T04:18:33;22.70;91.40
18454;DHT22;9356;52.202;20.950;2022-08-03T04:19:42;22.70;91.60
18454;DHT22;9356;52.202;20.950;2022-08-03T04:20:49;22.70;91.60
18454;DHT22;9356;52.202;20.950;2022-08-03T04:21:58;22.80;91.60
18454;DHT22;9356;52.202;20.950;2022-08-03T04:23:05;22.70;91.60
18454;DHT22;9356;52.202;20.950;2022-08-03T04:24:20;22.80;91.70
18454;DHT22;9356;52.202;20.950;2022-08-03T04:25:31;22.80;91.70
18454;DHT22;9356;52.202;20.950;2022-08-03T04:26:38;22.80;91.70
18454;DHT22;9356;52.202;20.950;2022-08-03T04:27:43;22.80;91.80
18454;DHT22;9356;52.202;20.950;2022-08-03T04:29:09;22.80;92.00
18454;DHT22;9356;52.202;20.950;2022-08-03T04:30:14;22.70;92.00
18454;DHT22;9356;52.202;20.950;2022-08-03T04:31:20;22.90;92.00
18454;DHT22;9356;52.202;20.950;2022-08-03T04:32:26;22.90;92.00
18454;DHT22;9356;52.202;20.950;2022-08-03T04:33:33;22.80;91.80
18454;DHT22;9356;52.202;20.950;2022-08-03T04:34:37;22.90;92.00
18454;DHT22;9356;52.202;20.950;2022-08-03T04:35:44;22.90;92.10
18454;DHT22;9356;52.202;20.950;2022-08-03T04:37:11;22.90;91.90
18454;DHT22;9356;52.202;20.950;2022-08-03T04:38:19;22.90;91.80
18454;DHT22;9356;52.202;20.950;2022-08-03T04:39:25;23.00;92.00
18454;DHT22;9356;52.202;20.950;2022-08-03T04:40:33;23.00;91.80
18454;DHT22;9356;52.202;20.950;2022-08-03T04:41:38;23.00;92.10
18454;DHT22;9356;52.202;20.950;2022-08-03T04:43:04;23.20;92.30
18454;DHT22;9356;52.202;20.950;2022-08-03T04:44:10;23.20;91.80
18454;DHT22;9356;52.202;20.950;2022-08-03T04:45:15;23.30;91.80
18454;DHT22;9356;52.202;20.950;2022-08-03T04:46:23;23.30;91.60
18454;DHT22;9356;52.202;20.950;2022-08-03T04:47:29;23.50;91.40
18454;DHT22;9356;52.202;20.950;2022-08-03T04:48:34;23.50;91.30
18454;DHT22;9356;52.202;20.950;2022-08-03T04:49:38;23.60;91.10
18454;DHT22;9356;52.202;20.950;2022-08-03T04:50:42;23.60;91.00
18454;DHT22;9356;52.202;20.950;2022-08-03T04:51:46;23.60;90.60
18454;DHT22;9356;52.202;20.950;2022-08-03T04:52:50;23.60;90.50
18454;DHT22;9356;52.202;20.950;2022-08-03T04:53:54;23.60;90.50
18454;DHT22;9356;52.202;20.950;2022-08-03T04:54:57;23.60;90.30
18454;DHT22;9356;52.202;20.950;2022-08-03T04:56:03;23.60;90.20
18454;DHT22;9356;52.202;20.950;2022-08-03T04:57:07;23.60;90.10
18454;DHT22;9356;52.202;20.950;2022-08-03T04:58:10;23.60;90.30
18454;DHT22;9356;52.202;20.950;2022-08-03T04:59:15;23.60;90.50
18454;DHT22;9356;52.202;20.950;2022-08-03T05:00:19;23.50;90.50
18454;DHT22;9356;52.202;20.950;2022-08-03T05:01:23;23.50;90.80
18454;DHT22;9356;52.202;20.950;2022-08-03T05:02:28;23.50;91.10
18454;DHT22;9356;52.202;20.950;2022-08-03T05:03:32;23.50;91.20
18454;DHT22;9356;52.202;20.950;2022-08-03T05:04:34;23.40;91.20
18454;DHT22;9356;52.202;20.950;2022-08-03T05:06:05;23.40;91.50
18454;DHT22;9356;52.202;20.950;2022-08-03T05:08:58;23.30;91.70
18454;DHT22;9356;52.202;20.950;2022-08-03T05:10:08;23.20;91.80
18454;DHT22;9356;52.202;20.950;2022-08-03T05:11:19;23.20;91.90
18454;DHT22;9356;52.202;20.950;2022-08-03T05:12:25;23.20;91.90
18454;DHT22;9356;52.202;20.950;2022-08-03T05:13:33;23.20;91.90
18454;DHT22;9356;52.202;20.950;2022-08-03T05:14:42;23.10;92.00
18454;DHT22;9356;52.202;20.950;2022-08-03T05:15:53;23.10;92.00
18454;DHT22;9356;52.202;20.950;2022-08-03T05:17:01;23.00;92.00
18454;DHT22;9356;52.202;20.950;2022-08-03T05:18:13;23.00;92.30
18454;DHT22;9356;52.202;20.950;2022-08-03T05:19:17;23.00;92.30
18454;DHT22;9356;52.202;20.950;2022-08-03T05:20:23;23.00;92.30
18454;DHT22;9356;52.202;20.950;2022-08-03T05:21:31;22.90;92.40
18454;DHT22;9356;52.202;20.950;2022-08-03T05:22:56;22.90;92.50
18454;DHT22;9356;52.202;20.950;2022-08-03T05:24:06;22.90;92.30
18454;DHT22;9356;52.202;20.950;2022-08-03T05:25:12;22.90;92.60
18454;DHT22;9356;52.202;20.950;2022-08-03T05:26:23;22.90;92.70
18454;DHT22;9356;52.202;20.950;2022-08-03T05:27:29;22.00;92.60
18454;DHT22;9356;52.202;20.950;2022-08-03T05:28:36;20.60;92.10
18454;DHT22;9356;52.202;20.950;2022-08-03T05:29:53;22.90;93.00
18454;DHT22;9356;52.202;20.950;2022-08-03T05:31:18;22.90;93.00
18454;DHT22;9356;52.202;20.950;2022-08-03T05:32:24;22.90;93.20
18454;DHT22;9356;52.202;20.950;2022-08-03T05:33:46;22.90;92.80
18454;DHT22;9356;52.202;20.950;2022-08-03T05:34:53;23.00;93.20
18454;DHT22;9356;52.202;20.950;2022-08-03T05:36:05;23.10;93.30
18454;DHT22;9356;52.202;20.950;2022-08-03T05:37:18;23.10;92.90
18454;DHT22;9356;52.202;20.950;2022-08-03T05:38:22;23.20;93.50
18454;DHT22;9356;52.202;20.950;2022-08-03T05:39:39;23.30;93.50
18454;DHT22;9356;52.202;20.950;2022-08-03T05:40:46;23.50;93.50
18454;DHT22;9356;52.202;20.950;2022-08-03T05:42:14;23.70;93.20
18454;DHT22;9356;52.202;20.950;2022-08-03T05:43:19;23.90;92.80
18454;DHT22;9356;52.202;20.950;2022-08-03T05:44:23;24.00;92.10
18454;DHT22;9356;52.202;20.950;2022-08-03T05:45:33;24.10;91.80
18454;DHT22;9356;52.202;20.950;2022-08-03T05:46:38;24.20;91.70
18454;DHT22;9356;52.202;20.950;2022-08-03T05:47:43;24.30;91.20
18454;DHT22;9356;52.202;20.950;2022-08-03T05:48:50;24.30;90.70
18454;DHT22;9356;52.202;20.950;2022-08-03T05:49:57;24.30;90.40
18454;DHT22;9356;52.202;20.950;2022-08-03T05:51:08;24.30;90.10
18454;DHT22;9356;52.202;20.950;2022-08-03T05:52:16;24.20;90.10
18454;DHT22;9356;52.202;20.950;2022-08-03T05:53:25;24.20;90.20
18454;DHT22;9356;52.202;20.950;2022-08-03T05:54:40;24.10;90.40
18454;DHT22;9356;52.202;20.950;2022-08-03T05:56:02;24.10;90.30
18454;DHT22;9356;52.202;20.950;2022-08-03T05:57:18;24.00;90.30
18454;DHT22;9356;52.202;20.950;2022-08-03T05:58:25;24.00;91.20
18454;DHT22;9356;52.202;20.950;2022-08-03T05:59:32;23.90;91.30
18454;DHT22;9356;52.202;20.950;2022-08-03T06:01:00;23.90;91.40
18454;DHT22;9356;52.202;20.950;2022-08-03T06:02:06;24.00;91.40
18454;DHT22;9356;52.202;20.950;2022-08-03T06:03:13;24.00;91.10
18454;DHT22;9356;52.202;20.950;2022-08-03T06:04:21;24.00;91.30
18454;DHT22;9356;52.202;20.950;2022-08-03T06:05:26;24.00;91.00
18454;DHT22;9356;52.202;20.950;2022-08-03T06:06:44;24.00;91.20
18454;DHT22;9356;52.202;20.950;2022-08-03T06:08:01;23.90;91.30
18454;DHT22;9356;52.202;20.950;2022-08-03T06:09:09;23.90;91.10
18454;DHT22;9356;52.202;20.950;2022-08-03T06:10:16;23.90;91.30
18454;DHT22;9356;52.202;20.950;2022-08-03T06:11:44;23.90;91.20
18454;DHT22;9356;52.202;20.950;2022-08-03T06:13:15;23.90;91.40
18454;DHT22;9356;52.202;20.950;2022-08-03T06:14:22;23.90;91.60
18454;DHT22;9356;52.202;20.950;2022-08-03T06:15:29;23.80;91.40
18454;DHT22;9356;52.202;20.950;2022-08-03T06:16:43;23.90;91.60
18454;DHT22;9356;52.202;20.950;2022-08-03T06:17:48;23.90;91.70
18454;DHT22;9356;52.202;20.950;2022-08-03T06:18:55;24.10;91.80
18454;DHT22;9356;52.202;20.950;2022-08-03T06:20:10;24.20;92.00
18454;DHT22;9356;52.202;20.950;2022-08-03T06:21:16;24.40;91.80
18454;DHT22;9356;52.202;20.950;2022-08-03T06:22:31;24.50;91.40
18454;DHT22;9356;52.202;20.950;2022-08-03T06:23:57;24.70;91.20
18454;DHT22;9356;52.202;20.950;2022-08-03T06:25:05;25.00;90.80
18454;DHT22;9356;52.202;20.950;2022-08-03T06:26:17;25.10;90.20
18454;DHT22;9356;52.202;20.950;2022-08-03T06:27:22;25.30;88.60
18454;DHT22;9356;52.202;20.950;2022-08-03T06:28:43;25.30;89.20
18454;DHT22;9356;52.202;20.950;2022-08-03T06:29:58;25.40;88.60
18454;DHT22;9356;52.202;20.950;2022-08-03T06:31:06;25.40;89.70
18454;DHT22;9356;52.202;20.950;2022-08-03T06:32:10;25.50;88.60
18454;DHT22;9356;52.202;20.950;2022-08-03T06:33:15;25.60;88.70
18454;DHT22;9356;52.202;20.950;2022-08-03T06:34:25;25.70;87.80
18454;DHT22;9356;52.202;20.950;2022-08-03T06:35:39;25.70;88.60
18454;DHT22;9356;52.202;20.950;2022-08-03T06:36:47;25.80;87.90
18454;DHT22;9356;52.202;20.950;2022-08-03T06:37:56;25.10;86.00
18454;DHT22;9356;52.202;20.950;2022-08-03T06:39:07;25.90;86.10
18454;DHT22;9356;52.202;20.950;2022-08-03T06:40:16;26.00;85.80
18454;DHT22;9356;52.202;20.950;2022-08-03T06:41:35;26.00;85.90
18454;DHT22;9356;52.202;20.950;2022-08-03T06:42:46;26.00;85.50
18454;DHT22;9356;52.202;20.950;2022-08-03T06:43:52;26.10;85.40
18454;DHT22;9356;52.202;20.950;2022-08-03T06:45:08;26.00;84.50
18454;DHT22;9356;52.202;20.950;2022-08-03T06:46:13;26.00;85.50
18454;DHT22;9356;52.202;20.950;2022-08-03T06:47:22;26.00;85.40
18454;DHT22;9356;52.202;20.950;2022-08-03T06:48:28;25.90;84.40
18454;DHT22;9356;52.202;20.950;2022-08-03T06:49:34;25.90;85.20
18454;DHT22;9356;52.202;20.950;2022-08-03T06:50:41;25.80;85.40
18454;DHT22;9356;52.202;20.950;2022-08-03T06:51:44;25.80;85.70
18454;DHT22;9356;52.202;20.950;2022-08-03T06:53:19;25.70;86.10
18454;DHT22;9356;52.202;20.950;2022-08-03T06:54:27;25.60;86.80
18454;DHT22;9356;52.202;20.950;2022-08-03T06:55:38;25.60;86.20
18454;DHT22;9356;52.202;20.950;2022-08-03T06:57:19;25.50;87.20
18454;DHT22;9356;52.202;20.950;2022-08-03T06:58:24;25.50;87.20
18454;DHT22;9356;52.202;20.950;2022-08-03T06:59:28;25.50;87.80
18454;DHT22;9356;52.202;20.950;2022-08-03T07:00:54;25.60;87.70
18454;DHT22;9356;52.202;20.950;2022-08-03T07:02:03;25.60;88.20
18454;DHT22;9356;52.202;20.950;2022-08-03T07:03:07;25.60;87.70
18454;DHT22;9356;52.202;20.950;2022-08-03T07:04:11;25.70;86.90
18454;DHT22;9356;52.202;20.950;2022-08-03T07:05:15;25.80;87.20
18454;DHT22;9356;52.202;20.950;2022-08-03T07:06:22;25.90;85.90
18454;DHT22;9356;52.202;20.950;2022-08-03T07:07:28;26.00;86.10
18454;DHT22;9356;52.202;20.950;2022-08-03T07:08:44;26.00;87.50
18454;DHT22;9356;52.202;20.950;2022-08-03T07:09:54;26.10;85.80
18454;DHT22;9356;52.202;20.950;2022-08-03T07:10:59;26.20;86.20
18454;DHT22;9356;52.202;20.950;2022-08-03T07:12:09;26.40;83.50
18454;DHT22;9356;52.202;20.950;2022-08-03T07:13:17;26.40;85.40
18454;DHT22;9356;52.202;20.950;2022-08-03T07:14:26;26.60;86.00
18454;DHT22;9356;52.202;20.950;2022-08-03T07:15:30;26.60;81.70
18454;DHT22;9356;52.202;20.950;2022-08-03T07:16:56;26.60;82.10
18454;DHT22;9356;52.202;20.950;2022-08-03T07:18:02;26.90;83.10
18454;DHT22;9356;52.202;20.950;2022-08-03T07:19:22;27.00;80.90
18454;DHT22;9356;52.202;20.950;2022-08-03T07:20:39;27.20;81.20
18454;DHT22;9356;52.202;20.950;2022-08-03T07:21:45;27.40;78.20
18454;DHT22;9356;52.202;20.950;2022-08-03T07:22:55;27.40;78.00
18454;DHT22;9356;52.202;20.950;2022-08-03T07:24:05;27.50;77.10
18454;DHT22;9356;52.202;20.950;2022-08-03T07:25:12;27.50;77.80
18454;DHT22;9356;52.202;20.950;2022-08-03T07:27:08;27.60;77.10
18454;DHT22;9356;52.202;20.950;2022-08-03T07:28:35;27.80;77.30
18454;DHT22;9356;52.202;20.950;2022-08-03T07:29:46;28.00;76.50
18454;DHT22;9356;52.202;20.950;2022-08-03T07:30:59;28.10;77.60
18454;DHT22;9356;52.202;20.950;2022-08-03T07:32:05;28.20;78.70
18454;DHT22;9356;52.202;20.950;2022-08-03T07:33:13;28.30;78.60
18454;DHT22;9356;52.202;20.950;2022-08-03T07:34:19;28.50;78.70
18454;DHT22;9356;52.202;20.950;2022-08-03T07:35:24;28.70;75.70
18454;DHT22;9356;52.202;20.950;2022-08-03T07:36:37;28.70;72.10